createdAt,value
2019-01-24T00:01:35.873Z,-1.59
2019-01-24T00:04:05.577Z,-1.69
2019-01-24T00:06:35.434Z,-1.79
2019-01-24T00:09:07.271Z,-1.92
2019-01-24T00:11:36.520Z,-1.99
2019-01-24T00:14:06.914Z,-2.02
2019-01-24T00:16:38.198Z,-2.04
2019-01-24T00:19:07.439Z,-2.01
2019-01-24T00:21:37.492Z,-2.00
2019-01-24T00:24:07.071Z,-2.04
2019-01-24T00:26:36.298Z,-2.08
2019-01-24T00:29:05.760Z,-2.12
2019-01-24T00:31:34.980Z,-2.14
2019-01-24T00:34:05.090Z,-2.13
2019-01-24T00:36:35.429Z,-2.17
2019-01-24T00:39:08.278Z,-2.20
2019-01-24T00:41:37.873Z,-2.23
2019-01-24T00:44:07.526Z,-2.25
2019-01-24T00:46:36.771Z,-2.23
2019-01-24T00:49:06.030Z,-2.24
2019-01-24T00:51:35.256Z,-2.24
2019-01-24T00:54:06.646Z,-2.22
2019-01-24T00:56:36.977Z,-2.22
2019-01-24T00:59:06.231Z,-2.18
2019-01-24T01:01:36.040Z,-2.17
2019-01-24T01:04:05.570Z,-2.15
2019-01-24T01:06:34.808Z,-2.16
2019-01-24T01:09:07.869Z,-2.19
2019-01-24T01:11:37.179Z,-2.30
2019-01-24T01:14:09.233Z,-2.19
2019-01-24T01:16:40.168Z,-2.16
2019-01-24T01:19:09.418Z,-2.16
2019-01-24T01:21:38.645Z,-2.24
2019-01-24T01:24:10.601Z,-2.17
2019-01-24T01:26:40.180Z,-2.12
2019-01-24T01:29:12.376Z,-2.12
2019-01-24T01:31:42.579Z,-2.10
2019-01-24T01:34:12.318Z,-2.11
2019-01-24T01:36:41.871Z,-2.07
2019-01-24T01:39:11.200Z,-2.04
2019-01-24T01:41:42.906Z,-2.07
2019-01-24T01:44:12.145Z,-2.02
2019-01-24T01:46:43.015Z,-2.06
2019-01-24T01:49:12.245Z,-2.08
2019-01-24T01:51:41.497Z,-2.12
2019-01-24T01:54:10.743Z,-2.18
2019-01-24T01:56:41.250Z,-2.24
2019-01-24T01:59:10.477Z,-2.27
2019-01-24T02:01:39.729Z,-2.28
2019-01-24T02:04:08.959Z,-2.28
2019-01-24T02:06:38.214Z,-2.30
2019-01-24T02:09:10.508Z,-2.26
2019-01-24T02:11:40.158Z,-2.24
2019-01-24T02:14:09.757Z,-2.20
2019-01-24T02:16:39.403Z,-2.19
2019-01-24T02:19:10.871Z,-2.15
2019-01-24T02:21:40.618Z,-2.01
2019-01-24T02:24:09.865Z,-2.00
2019-01-24T02:26:39.100Z,-1.97
2019-01-24T02:29:08.320Z,-1.98
2019-01-24T02:31:42.300Z,-1.87
2019-01-24T02:34:11.530Z,-1.84
2019-01-24T02:36:40.795Z,-1.81
2019-01-24T02:39:12.015Z,-1.81
2019-01-24T02:41:41.558Z,-1.88
2019-01-24T02:44:12.285Z,-1.94
2019-01-24T02:46:41.557Z,-2.07
2019-01-24T02:49:10.790Z,-2.04
2019-01-24T02:51:40.337Z,-2.05
2019-01-24T02:54:09.912Z,-2.07
2019-01-24T02:56:39.474Z,-2.07
2019-01-24T02:59:09.010Z,-2.10
2019-01-24T03:01:41.291Z,-2.14
2019-01-24T03:04:13.495Z,-2.11
2019-01-24T03:06:42.766Z,-2.14
2019-01-24T03:09:13.671Z,-2.19
2019-01-24T03:11:46.753Z,-2.21
2019-01-24T03:14:16.864Z,-2.21
2019-01-24T03:16:46.575Z,-2.25
2019-01-24T03:19:18.371Z,-2.23
2019-01-24T03:21:47.942Z,-2.23
2019-01-24T03:24:19.686Z,-2.23
2019-01-24T03:26:48.910Z,-2.28
2019-01-24T03:29:18.163Z,-2.28
2019-01-24T03:31:47.391Z,-2.28
2019-01-24T03:34:16.634Z,-2.32
2019-01-24T03:36:48.247Z,-2.34
2019-01-24T03:39:27.237Z,-2.33
2019-01-24T03:41:56.457Z,-2.35
2019-01-24T03:44:27.348Z,-2.41
2019-01-24T03:46:56.596Z,-2.39
2019-01-24T03:49:26.385Z,-2.40
2019-01-24T03:51:55.693Z,-2.37
2019-01-24T03:54:24.945Z,-2.37
2019-01-24T03:56:54.289Z,-2.38
2019-01-24T03:59:23.537Z,-2.42
2019-01-24T04:01:52.761Z,-2.46
2019-01-24T04:04:22.365Z,-2.43
2019-01-24T04:06:51.730Z,-2.42
2019-01-24T04:09:22.186Z,-2.42
2019-01-24T04:11:51.820Z,-2.40
2019-01-24T04:14:21.129Z,-2.28
2019-01-24T04:16:50.368Z,-2.18
2019-01-24T04:19:19.635Z,-2.12
2019-01-24T04:21:48.854Z,-2.04
2019-01-24T04:24:18.102Z,-2.10
2019-01-24T04:26:47.648Z,-1.99
2019-01-24T04:29:16.911Z,-1.96
2019-01-24T04:31:46.141Z,-1.97
2019-01-24T04:34:15.399Z,-1.86
2019-01-24T04:36:44.634Z,-1.91
2019-01-24T04:39:34.395Z,-1.90
2019-01-24T04:42:03.628Z,-1.85
2019-01-24T04:44:34.185Z,-1.82
2019-01-24T04:47:03.507Z,-1.79
2019-01-24T04:49:33.866Z,-1.79
2019-01-24T04:52:03.403Z,-1.81
2019-01-24T04:54:35.365Z,-1.82
2019-01-24T04:57:04.613Z,-1.77
2019-01-24T04:59:33.862Z,-1.73
2019-01-24T05:02:03.097Z,-1.72
2019-01-24T05:04:32.349Z,-1.89
2019-01-24T05:07:01.892Z,-1.94
2019-01-24T05:09:31.179Z,-1.82
2019-01-24T05:12:00.394Z,-1.77
2019-01-24T05:14:29.642Z,-1.81
2019-01-24T05:16:58.865Z,-1.85
2019-01-24T05:19:29.116Z,-1.77
2019-01-24T05:21:58.643Z,-1.79
2019-01-24T05:24:31.326Z,-1.75
2019-01-24T05:27:00.560Z,-1.76
2019-01-24T05:29:29.812Z,-1.83
2019-01-24T05:31:59.036Z,-1.92
2019-01-24T05:34:28.287Z,-1.97
2019-01-24T05:36:57.542Z,-2.02
2019-01-24T05:39:26.782Z,-2.04
2019-01-24T05:41:58.056Z,-2.11
2019-01-24T05:44:28.096Z,-2.17
2019-01-24T05:47:00.279Z,-2.27
2019-01-24T05:49:29.507Z,-2.37
2019-01-24T05:51:59.998Z,-2.41
2019-01-24T05:54:29.214Z,-2.38
2019-01-24T05:56:58.462Z,-2.37
2019-01-24T05:59:27.710Z,-2.45
2019-01-24T06:01:57.544Z,-2.47
2019-01-24T06:04:26.774Z,-2.52
2019-01-24T06:06:58.333Z,-2.53
2019-01-24T06:09:29.656Z,-2.50
2019-01-24T06:12:03.880Z,-2.45
2019-01-24T06:14:33.951Z,-2.48
2019-01-24T06:17:03.212Z,-2.45
2019-01-24T06:19:35.236Z,-2.40
2019-01-24T06:22:06.526Z,-2.39
2019-01-24T06:24:36.428Z,-2.37
2019-01-24T06:27:05.725Z,-2.46
2019-01-24T06:29:37.081Z,-2.47
2019-01-24T06:32:06.336Z,-2.52
2019-01-24T06:34:37.033Z,-2.49
2019-01-24T06:37:07.518Z,-2.48
2019-01-24T06:39:37.520Z,-2.41
2019-01-24T06:42:11.225Z,-2.42
2019-01-24T06:44:41.544Z,-2.41
2019-01-24T06:47:11.793Z,-2.35
2019-01-24T06:49:41.270Z,-2.38
2019-01-24T06:52:14.362Z,-2.34
2019-01-24T06:54:44.909Z,-2.30
2019-01-24T06:57:16.656Z,-2.38
2019-01-24T06:59:47.932Z,-2.36
2019-01-24T07:02:17.177Z,-2.38
2019-01-24T07:04:53.845Z,-2.36
2019-01-24T07:07:23.756Z,-2.35
2019-01-24T07:09:55.565Z,-2.27
2019-01-24T07:12:25.167Z,-2.27
2019-01-24T07:14:54.993Z,-2.16
2019-01-24T07:17:24.253Z,-2.17
2019-01-24T07:19:54.424Z,-2.10
2019-01-24T07:22:27.252Z,-2.09
2019-01-24T07:24:58.787Z,-2.01
2019-01-24T07:27:37.609Z,-2.04
2019-01-24T07:30:09.793Z,-2.07
2019-01-24T07:32:39.390Z,-2.03
2019-01-24T07:35:10.900Z,-2.04
2019-01-24T07:37:41.899Z,-2.01
2019-01-24T07:40:14.414Z,-2.04
2019-01-24T07:42:46.179Z,-2.02
2019-01-24T07:45:24.336Z,-1.97
2019-01-24T07:47:53.936Z,-1.95
2019-01-24T07:50:23.141Z,-1.81
2019-01-24T07:52:54.380Z,-1.78
2019-01-24T07:55:24.610Z,-1.73
2019-01-24T07:58:01.090Z,-1.73
2019-01-24T08:00:30.629Z,-1.67
2019-01-24T08:03:03.339Z,-1.67
2019-01-24T08:05:33.371Z,-1.59
2019-01-24T08:08:06.217Z,-1.49
2019-01-24T08:10:41.007Z,-1.52
2019-01-24T08:13:11.685Z,-1.47
2019-01-24T08:15:43.185Z,-1.36
2019-01-24T08:18:13.905Z,-1.28
2019-01-24T08:20:44.050Z,-1.23
2019-01-24T08:23:14.985Z,-1.20
2019-01-24T08:25:45.324Z,-1.19
2019-01-24T08:28:17.366Z,-1.24
2019-01-24T08:30:48.175Z,-1.15
2019-01-24T08:33:18.014Z,-1.06
2019-01-24T08:35:50.199Z,-1.07
2019-01-24T08:38:20.129Z,-1.08
2019-01-24T08:40:52.100Z,-1.12
2019-01-24T08:43:24.932Z,-1.16
2019-01-24T08:45:56.836Z,-1.13
2019-01-24T08:48:28.494Z,-0.99
2019-01-24T08:50:58.822Z,-0.86
2019-01-24T08:53:29.395Z,-0.79
2019-01-24T08:56:02.248Z,-0.82
2019-01-24T08:58:33.507Z,-0.73
2019-01-24T09:01:02.720Z,-0.81
2019-01-24T09:03:33.181Z,-0.84
2019-01-24T09:06:02.509Z,-0.92
2019-01-24T09:08:36.426Z,-0.80
2019-01-24T09:11:05.940Z,-0.79
2019-01-24T09:13:36.058Z,-0.85
2019-01-24T09:16:06.193Z,-0.87
2019-01-24T09:18:36.384Z,-0.95
2019-01-24T09:21:09.210Z,-0.92
2019-01-24T09:23:38.465Z,-0.83
2019-01-24T09:26:16.399Z,-0.91
2019-01-24T09:28:46.718Z,-1.01
2019-01-24T09:31:16.298Z,-0.78
2019-01-24T09:33:53.023Z,-0.81
2019-01-24T09:36:29.095Z,-0.67
2019-01-24T09:38:54.058Z,-0.61
2019-01-24T09:41:24.491Z,-0.57
2019-01-24T09:43:53.739Z,-0.44
2019-01-24T09:46:27.998Z,-0.42
2019-01-24T09:48:57.824Z,-0.36
2019-01-24T09:51:29.467Z,-0.41
2019-01-24T09:54:03.758Z,-0.48
2019-01-24T09:56:32.990Z,-0.57
2019-01-24T09:59:03.032Z,-0.35
2019-01-24T10:01:36.557Z,-0.31
2019-01-24T10:04:05.801Z,-0.24
2019-01-24T10:06:38.354Z,-0.18
2019-01-24T10:09:08.971Z,-0.32
2019-01-24T10:11:38.218Z,-0.46
2019-01-24T10:14:07.710Z,-0.44
2019-01-24T10:16:40.029Z,-0.42
2019-01-24T10:19:10.513Z,-0.43
2019-01-24T10:21:43.627Z,-0.33
2019-01-24T10:24:13.260Z,-0.42
2019-01-24T10:26:44.551Z,-0.46
2019-01-24T10:29:14.573Z,-0.60
2019-01-24T10:31:44.282Z,-0.67
2019-01-24T10:34:14.917Z,-0.80
2019-01-24T10:36:47.136Z,-0.99
2019-01-24T10:39:16.672Z,-1.04
2019-01-24T10:41:48.472Z,-0.95
2019-01-24T10:44:20.162Z,-0.81
2019-01-24T10:46:49.700Z,-0.83
2019-01-24T10:49:20.128Z,-0.92
2019-01-24T10:51:49.727Z,-1.01
2019-01-24T10:54:18.963Z,-1.04
2019-01-24T10:56:50.328Z,-0.99
2019-01-24T10:59:19.830Z,-1.05
2019-01-24T11:01:50.703Z,-1.04
2019-01-24T11:04:20.220Z,-1.07
2019-01-24T11:06:50.144Z,-1.06
2019-01-24T11:09:19.878Z,-1.13
2019-01-24T11:11:49.459Z,-1.16
2019-01-24T11:14:20.278Z,-1.07
2019-01-24T11:16:54.622Z,-1.13
2019-01-24T11:19:26.245Z,-1.17
2019-01-24T11:21:58.030Z,-1.17
2019-01-24T11:24:27.531Z,-1.16
2019-01-24T11:26:56.781Z,-1.21
2019-01-24T11:29:26.001Z,-1.20
2019-01-24T11:31:55.286Z,-1.15
2019-01-24T11:34:24.523Z,-1.07
2019-01-24T11:36:57.096Z,-1.07
2019-01-24T11:39:25.039Z,-1.07
2019-01-24T11:41:54.688Z,-1.01
2019-01-24T11:44:24.172Z,-0.92
2019-01-24T11:46:54.889Z,-0.84
2019-01-24T11:49:24.125Z,-0.74
2019-01-24T11:51:54.227Z,-0.71
2019-01-24T11:54:24.510Z,-0.68
2019-01-24T11:56:53.792Z,-0.63
2019-01-24T11:59:23.025Z,-0.64
2019-01-24T12:01:52.282Z,-0.71
2019-01-24T12:04:21.795Z,-0.74
2019-01-24T12:06:52.467Z,-0.77
2019-01-24T12:09:23.779Z,-0.73
2019-01-24T12:11:56.222Z,-0.67
2019-01-24T12:14:28.610Z,-0.69
2019-01-24T12:16:58.275Z,-0.61
2019-01-24T12:19:28.072Z,-0.45
2019-01-24T12:21:57.746Z,-0.21
2019-01-24T12:24:27.056Z,-0.12
2019-01-24T12:26:59.950Z,-0.13
2019-01-24T12:29:29.697Z,-0.02
2019-01-24T12:32:01.643Z,0.02
2019-01-24T12:34:31.172Z,-0.18
2019-01-24T12:37:01.817Z,-0.26
2019-01-24T12:39:33.687Z,-0.31
2019-01-24T12:42:03.257Z,-0.37
2019-01-24T12:44:32.481Z,-0.25
2019-01-24T12:47:03.435Z,-0.10
2019-01-24T12:49:33.889Z,-0.05
2019-01-24T12:52:03.375Z,-0.07
2019-01-24T12:54:34.302Z,-0.01
2019-01-24T12:57:07.187Z,-0.01
2019-01-24T12:59:39.243Z,0.10
2019-01-24T13:02:08.948Z,0.21
2019-01-24T13:04:38.295Z,-0.01
2019-01-24T13:07:10.190Z,-0.15
2019-01-24T13:09:39.786Z,-0.27
2019-01-24T13:12:09.030Z,-0.32
2019-01-24T13:14:38.593Z,-0.45
2019-01-24T13:17:10.245Z,-0.39
2019-01-24T13:19:39.506Z,-0.40
2019-01-24T13:22:09.607Z,-0.37
2019-01-24T13:24:44.131Z,-0.21
2019-01-24T13:27:13.771Z,-0.10
2019-01-24T13:29:45.813Z,-0.02
2019-01-24T13:32:15.057Z,-0.03
2019-01-24T13:34:44.338Z,-0.05
2019-01-24T13:37:14.835Z,-0.11
2019-01-24T13:39:46.508Z,-0.29
2019-01-24T13:42:15.750Z,-0.40
2019-01-24T13:44:46.646Z,-0.21
2019-01-24T13:47:17.717Z,-0.03
2019-01-24T13:49:47.341Z,0.09
2019-01-24T13:52:19.831Z,0.17
2019-01-24T13:54:49.067Z,0.39
2019-01-24T13:57:18.308Z,0.49
2019-01-24T13:59:49.958Z,0.49
2019-01-24T14:02:23.079Z,0.36
2019-01-24T14:04:52.325Z,0.14
2019-01-24T14:07:21.552Z,0.06
2019-01-24T14:09:50.805Z,0.06
2019-01-24T14:12:20.442Z,0.13
2019-01-24T14:14:50.044Z,0.33
2019-01-24T14:17:19.971Z,0.21
2019-01-24T14:19:50.254Z,0.12
2019-01-24T14:22:19.473Z,0.03
2019-01-24T14:24:48.725Z,0.11
2019-01-24T14:27:17.942Z,0.12
2019-01-24T14:29:49.626Z,0.02
2019-01-24T14:32:19.208Z,-0.18
2019-01-24T14:34:51.590Z,-0.20
2019-01-24T14:37:20.847Z,-0.19
2019-01-24T14:39:55.344Z,-0.28
2019-01-24T14:42:27.303Z,-0.41
2019-01-24T14:44:57.149Z,-0.53
2019-01-24T14:47:27.293Z,-0.40
2019-01-24T14:49:57.707Z,-0.50
2019-01-24T14:52:30.377Z,-0.46
2019-01-24T14:54:59.635Z,-0.50
2019-01-24T14:57:29.818Z,-0.62
2019-01-24T14:59:59.091Z,-0.63
2019-01-24T15:02:28.429Z,-0.59
2019-01-24T15:04:57.776Z,-0.54
2019-01-24T15:07:28.116Z,-0.58
2019-01-24T15:09:57.365Z,-0.47
2019-01-24T15:12:26.584Z,-0.47
2019-01-24T15:14:56.138Z,-0.47
2019-01-24T15:17:25.649Z,-0.47
2019-01-24T15:19:57.110Z,-0.61
2019-01-24T15:22:29.404Z,-0.56
2019-01-24T15:24:58.635Z,-0.69
2019-01-24T15:27:30.353Z,-0.65
2019-01-24T15:30:00.683Z,-0.83
2019-01-24T15:32:31.959Z,-0.77
2019-01-24T15:35:01.184Z,-0.86
2019-01-24T15:37:30.440Z,-0.83
2019-01-24T15:40:02.092Z,-0.92
2019-01-24T15:42:31.412Z,-0.92
2019-01-24T15:45:03.245Z,-1.01
2019-01-24T15:47:33.626Z,-1.04
2019-01-24T15:50:05.331Z,-0.96
2019-01-24T15:52:35.410Z,-0.94
2019-01-24T15:55:06.084Z,-0.97
2019-01-24T15:57:35.381Z,-1.02
2019-01-24T16:00:08.336Z,-1.07
2019-01-24T16:02:37.598Z,-1.12
2019-01-24T16:05:17.562Z,-1.18
2019-01-24T16:07:47.840Z,-1.22
2019-01-24T16:10:21.674Z,-1.19
2019-01-24T16:12:51.344Z,-1.13
2019-01-24T16:15:29.396Z,-1.17
2019-01-24T16:17:59.001Z,-1.09
2019-01-24T16:20:28.894Z,-1.05
2019-01-24T16:22:59.284Z,-1.05
2019-01-24T16:25:31.664Z,-1.04
2019-01-24T16:28:04.421Z,-0.98
2019-01-24T16:30:34.542Z,-0.97
2019-01-24T16:33:07.050Z,-1.00
2019-01-24T16:35:36.586Z,-1.08
2019-01-24T16:38:09.586Z,-1.06
2019-01-24T16:40:41.141Z,-1.06
2019-01-24T16:43:10.729Z,-1.07
2019-01-24T16:45:43.215Z,-1.00
2019-01-24T16:48:14.760Z,-0.96
2019-01-24T16:50:47.357Z,-0.99
2019-01-24T16:53:18.897Z,-0.98
2019-01-24T16:55:51.207Z,-0.97
2019-01-24T16:58:20.633Z,-0.94
2019-01-24T17:01:00.246Z,-0.95
2019-01-24T17:03:29.836Z,-1.06
2019-01-24T17:06:02.157Z,-1.12
2019-01-24T17:08:33.507Z,-0.97
2019-01-24T17:11:02.993Z,-1.00
2019-01-24T17:13:32.241Z,-1.08
2019-01-24T17:16:03.337Z,-1.04
2019-01-24T17:18:32.415Z,-0.99
2019-01-24T17:21:03.242Z,-0.98
2019-01-24T17:23:33.424Z,-0.94
2019-01-24T17:26:05.363Z,-1.01
2019-01-24T17:28:36.057Z,-1.09
2019-01-24T17:31:05.969Z,-1.13
2019-01-24T17:33:37.340Z,-1.22
2019-01-24T17:36:07.924Z,-1.17
2019-01-24T17:38:44.640Z,-1.18
2019-01-24T17:41:14.132Z,-1.15
2019-01-24T17:43:43.664Z,-1.07
2019-01-24T17:46:16.668Z,-1.12
2019-01-24T17:48:47.360Z,-1.08
2019-01-24T17:51:16.603Z,-1.06
2019-01-24T17:53:47.320Z,-1.06
2019-01-24T17:56:17.688Z,-1.05
2019-01-24T17:58:47.631Z,-1.01
2019-01-24T18:01:18.600Z,-1.02
2019-01-24T18:03:51.117Z,-1.02
2019-01-24T18:06:20.418Z,-1.02
2019-01-24T18:08:50.258Z,-1.14
2019-01-24T18:11:19.488Z,-1.30
2019-01-24T18:13:51.615Z,-1.34
2019-01-24T18:16:23.801Z,-1.27
2019-01-24T18:18:53.167Z,-1.44
2019-01-24T18:21:22.705Z,-1.59
2019-01-24T18:23:55.144Z,-1.74
2019-01-24T18:26:24.194Z,-1.75
2019-01-24T18:28:53.849Z,-1.79
2019-01-24T18:31:25.614Z,-1.69
2019-01-24T18:33:55.955Z,-1.84
2019-01-24T18:36:27.445Z,-1.90
2019-01-24T18:39:05.838Z,-1.81
2019-01-24T18:41:35.067Z,-1.73
2019-01-24T18:44:06.494Z,-1.88
2019-01-24T18:46:36.046Z,-1.96
2019-01-24T18:49:05.400Z,-1.91
2019-01-24T18:51:38.053Z,-2.03
2019-01-24T18:54:07.848Z,-1.98
2019-01-24T18:56:38.169Z,-1.83
2019-01-24T18:59:11.675Z,-1.72
2019-01-24T19:01:42.546Z,-1.59
2019-01-24T19:04:16.849Z,-1.51
2019-01-24T19:06:46.082Z,-1.47
2019-01-24T19:09:15.758Z,-1.57
2019-01-24T19:11:44.994Z,-1.73
2019-01-24T19:14:14.735Z,-1.76
2019-01-24T19:16:46.626Z,-1.80
2019-01-24T19:19:16.568Z,-1.64
2019-01-24T19:21:45.802Z,-1.54
2019-01-24T19:24:15.241Z,-1.52
2019-01-24T19:26:45.663Z,-1.56
2019-01-24T19:29:15.034Z,-1.76
2019-01-24T19:31:48.066Z,-1.75
2019-01-24T19:34:19.059Z,-1.80
2019-01-24T19:36:48.288Z,-1.71
2019-01-24T19:39:20.252Z,-1.66
2019-01-24T19:42:04.147Z,-1.63
2019-01-24T19:44:33.408Z,-1.56
2019-01-24T19:47:05.901Z,-1.53
2019-01-24T19:49:35.552Z,-1.49
2019-01-24T19:52:08.033Z,-1.51
2019-01-24T19:54:39.161Z,-1.41
2019-01-24T19:57:11.053Z,-1.39
2019-01-24T19:59:41.797Z,-1.36
2019-01-24T20:02:11.031Z,-1.49
2019-01-24T20:04:42.348Z,-1.50
2019-01-24T20:07:12.766Z,-1.53
2019-01-24T20:09:43.867Z,-1.57
2019-01-24T20:12:16.625Z,-1.64
2019-01-24T20:14:47.398Z,-1.78
2019-01-24T20:17:16.632Z,-1.75
2019-01-24T20:19:46.764Z,-1.86
2019-01-24T20:22:16.349Z,-1.82
2019-01-24T20:24:46.563Z,-1.94
2019-01-24T20:27:18.691Z,-2.03
2019-01-24T20:29:50.129Z,-1.80
2019-01-24T20:32:19.649Z,-1.71
2019-01-24T20:34:48.903Z,-1.66
2019-01-24T20:37:18.142Z,-1.83
2019-01-24T20:39:48.086Z,-1.91
2019-01-24T20:42:18.462Z,-1.72
2019-01-24T20:44:49.404Z,-1.73
2019-01-24T20:47:20.258Z,-1.67
2019-01-24T20:49:50.607Z,-1.71
2019-01-24T20:52:28.947Z,-1.77
2019-01-24T20:54:59.969Z,-1.75
2019-01-24T20:57:29.637Z,-1.76
2019-01-24T21:00:01.851Z,-1.78
2019-01-24T21:02:33.939Z,-1.78
2019-01-24T21:05:04.578Z,-1.82
2019-01-24T21:07:37.064Z,-1.85
2019-01-24T21:10:10.967Z,-1.94
2019-01-24T21:12:42.516Z,-1.96
2019-01-24T21:15:13.279Z,-2.06
2019-01-24T21:17:44.866Z,-2.17
2019-01-24T21:20:18.533Z,-2.23
2019-01-24T21:22:49.365Z,-2.25
2019-01-24T21:25:21.643Z,-2.37
2019-01-24T21:27:52.303Z,-2.38
2019-01-24T21:30:32.505Z,-2.35
2019-01-24T21:33:02.962Z,-2.37
2019-01-24T21:35:34.275Z,-2.31
2019-01-24T21:38:06.223Z,-2.33
2019-01-24T21:40:35.541Z,-2.41
2019-01-24T21:43:05.723Z,-2.42
2019-01-24T21:45:38.083Z,-2.35
2019-01-24T21:48:09.569Z,-2.34
2019-01-24T21:50:39.579Z,-2.45
2019-01-24T21:53:10.998Z,-2.40
2019-01-24T21:55:42.650Z,-2.20
2019-01-24T21:58:12.166Z,-2.18
2019-01-24T22:00:41.671Z,-2.35
2019-01-24T22:03:14.741Z,-2.30
2019-01-24T22:05:44.573Z,-2.13
2019-01-24T22:08:17.185Z,-2.23
2019-01-24T22:10:54.843Z,-2.30
2019-01-24T22:13:23.903Z,-2.08
2019-01-24T22:15:56.593Z,-2.13
2019-01-24T22:18:25.823Z,-2.00
2019-01-24T22:20:56.952Z,-1.90
2019-01-24T22:23:32.013Z,-2.03
2019-01-24T22:26:06.513Z,-2.10
2019-01-24T22:28:35.763Z,-1.99
2019-01-24T22:31:07.543Z,-1.97
2019-01-24T22:33:39.882Z,-1.93
2019-01-24T22:36:10.984Z,-1.97
2019-01-24T22:38:40.529Z,-1.93
2019-01-24T22:41:09.800Z,-1.95
2019-01-24T22:43:48.202Z,-1.94
2019-01-24T22:46:18.576Z,-1.85
2019-01-24T22:48:47.796Z,-1.97
2019-01-24T22:51:17.958Z,-2.04
2019-01-24T22:53:51.733Z,-2.06
2019-01-24T22:56:21.262Z,-2.20
2019-01-24T22:58:55.950Z,-2.07
2019-01-24T23:01:52.177Z,-2.08
2019-01-24T23:04:23.963Z,-2.02
2019-01-24T23:06:53.220Z,-2.05
2019-01-24T23:09:24.009Z,-1.90
2019-01-24T23:11:53.264Z,-1.78
2019-01-24T23:14:22.803Z,-1.72
2019-01-24T23:16:52.048Z,-1.75
2019-01-24T23:19:22.774Z,-1.64
2019-01-24T23:21:55.596Z,-1.57
2019-01-24T23:24:27.691Z,-1.52
2019-01-24T23:27:00.529Z,-1.51
2019-01-24T23:29:42.940Z,-1.51
2019-01-24T23:32:12.647Z,-1.48
2019-01-24T23:34:42.149Z,-1.42
2019-01-24T23:37:12.454Z,-1.41
2019-01-24T23:39:41.712Z,-1.51
2019-01-24T23:42:12.995Z,-1.48
2019-01-24T23:44:42.541Z,-1.53
2019-01-24T23:47:13.465Z,-1.52
2019-01-24T23:49:42.725Z,-1.49
2019-01-24T23:52:13.736Z,-1.49
2019-01-24T23:54:43.858Z,-1.50
2019-01-24T23:57:13.719Z,-1.44
2019-01-24T23:59:42.985Z,-1.40
